Airfield :
LOGIN :

Register | Disclaimer

   EN    FR    IT 

 










Legend :    VFR   Marginal VFR   IFR   Intensive IFR   Very Intensive IFR
Visi :
Ceiling :
>= 8 km
>= 3000ft
5 to 8 km
1000 to 3000 ft
1500m to 5 km
500 to 1000 ft
800 to 1500m
200 to 500 ft
< 800m
< 200 ft
Symbols :   Thunderstorms  Fog  Heavy snow  Heavy precipitations  Wind > 20 kt
SIGMETs :     Misc.  Thunderstorms  Icing  Turbulence  Mountain Waves  Volcanic Ashes






- Airport Elevation : 13 ft
- IATA code : CEQ


LFMD - Cannes Mandelieu

CURRENT METAR :
  • 100530Z AUTO 01003KT 340V050 CAVOK 05/M01 Q1013 TEMPO 28010KT

EXPIRED METARs :
  • 100500Z AUTO VRB02KT CAVOK 04/M00 Q1013 NOSIG
  • 100430Z AUTO VRB01KT CAVOK 04/00 Q1012 NOSIG
  • 100400Z AUTO 29002KT CAVOK 04/00 Q1012 NOSIG
  • 100330Z AUTO 00000KT CAVOK 06/M01 Q1012 TEMPO 28010KT
  • 100300Z AUTO VRB03KT CAVOK 06/M00 Q1011 NOSIG
  • 100230Z AUTO 01003KT 340V050 CAVOK 06/M00 Q1011 NOSIG

TAF TAF LFMD
Valid from the 10 at 03:00 until the 11 at 03:00 UTC


100200Z 1003/1103 VRB02KT CAVOK
TEMPO 1005/1012 28010KT CAVOK
BECMG 1016/1018 36005KT
ATIS : +33 4 93 48 73 23



MET'MAP, your aeronautical weather chart ! - Copyright ORBIFLY December 2007 - Disclaimer

ORBIFLY MET'MAP TEAM :

Programming & Development : Alexandra Zaïnal
Concept & original design : Baudouin d'Aumeries
Assistance for programming : Marc-Olivier Méhu
Technical & hardware support : Manuel Goepfert

Contact : metmap@orbifly.com




SOURCES & CREDITS :

   NOAA